If you wish to contribute or participate in the discussions about articles you are invited to join SKYbrary as a registered user

 Actions

Tenerife Sur/Reina Sofia

From SKYbrary Wiki

GCTS
Airport
ICAO: GCTS
Summary
Name Tenerife Sur/Reina Sofia
Region Europe
Territory Canary Islands ES.gif
Location Granadilla de Abona
Serving
Coordinates 28° 2' 43.60" N, 16° 34' 24.00" W
Runways
Designator Length Width Surface ROPS
8/26 3200 m10,498.688 ft
45 m147.638 ft
ASP yes/yes


METAR
Observation GCTS 210730Z 03008KT 350V070 9999 FEW020 23/17 Q1016 NOSIG
Station Tenerife Sur
Date/Time 21 August 2019 07:30:00
Wind direction 30°
Wind speed 08 kts
Lowest cloud amount few clouds
Temperature 23°C
Dew point 17°C
Humidity 69%
QNH 1016 hPa
Weather condition n/a

WX
Tag(s) Low Level Turbulence
Volcanic Ash

Tenerife Sur Airport

ICAO: GCTS IATA: TFS

Description

International airport serving the island of Tenerife.

Climatology

Dry-summer subtropical ”Mediterranean" climate (Köppen climate classification Csa) - characterized by hot, dry summers and mild winters. During the summer, subtropical high pressure cells dominate, making rainfall unlikely except for the occasional thunderstorm. In the winter, periodic storms bring rain (snow at higher elevations).

Maps

Terrain

Loading map...

Airport Layout

Loading map...



Accidents & Serious Incidents at or in vicinity of GCTS

None on SKYbrary